sensor_id;sensor_type;location;lat;lon;timestamp;P1;durP1;ratioP1;P2;durP2;ratioP2
44480;SDS011;30184;42.018;23.670;2023-07-31T00:02:01;5.90;;;3.42;;
44480;SDS011;30184;42.018;23.670;2023-07-31T00:04:30;7.30;;;3.88;;
44480;SDS011;30184;42.018;23.670;2023-07-31T00:06:59;5.93;;;3.13;;
44480;SDS011;30184;42.018;23.670;2023-07-31T00:09:28;4.50;;;3.33;;
44480;SDS011;30184;42.018;23.670;2023-07-31T00:11:57;8.32;;;3.28;;
44480;SDS011;30184;42.018;23.670;2023-07-31T00:14:28;6.38;;;3.60;;
44480;SDS011;30184;42.018;23.670;2023-07-31T00:16:57;5.78;;;3.58;;
44480;SDS011;30184;42.018;23.670;2023-07-31T00:19:27;7.68;;;3.65;;
44480;SDS011;30184;42.018;23.670;2023-07-31T00:21:56;6.50;;;3.88;;
44480;SDS011;30184;42.018;23.670;2023-07-31T00:24:26;5.55;;;3.50;;
44480;SDS011;30184;42.018;23.670;2023-07-31T00:26:56;6.75;;;3.88;;
44480;SDS011;30184;42.018;23.670;2023-07-31T00:29:28;6.35;;;3.40;;
44480;SDS011;30184;42.018;23.670;2023-07-31T00:31:57;5.00;;;3.08;;
44480;SDS011;30184;42.018;23.670;2023-07-31T00:34:26;9.82;;;4.25;;
44480;SDS011;30184;42.018;23.670;2023-07-31T00:36:55;5.72;;;3.67;;
44480;SDS011;30184;42.018;23.670;2023-07-31T00:39:25;5.28;;;3.20;;
44480;SDS011;30184;42.018;23.670;2023-07-31T00:41:54;6.35;;;3.80;;
44480;SDS011;30184;42.018;23.670;2023-07-31T00:44:24;6.15;;;3.90;;
44480;SDS011;30184;42.018;23.670;2023-07-31T00:46:55;8.35;;;3.97;;
44480;SDS011;30184;42.018;23.670;2023-07-31T00:49:25;9.65;;;4.43;;
44480;SDS011;30184;42.018;23.670;2023-07-31T00:51:55;10.45;;;4.45;;
44480;SDS011;30184;42.018;23.670;2023-07-31T00:54:25;7.20;;;3.90;;
44480;SDS011;30184;42.018;23.670;2023-07-31T00:56:55;13.00;;;5.57;;
44480;SDS011;30184;42.018;23.670;2023-07-31T00:59:25;7.80;;;4.50;;
44480;SDS011;30184;42.018;23.670;2023-07-31T01:01:56;7.47;;;4.22;;
44480;SDS011;30184;42.018;23.670;2023-07-31T01:04:25;9.02;;;4.20;;
44480;SDS011;30184;42.018;23.670;2023-07-31T01:06:56;9.57;;;4.80;;
44480;SDS011;30184;42.018;23.670;2023-07-31T01:09:33;7.45;;;4.45;;
44480;SDS011;30184;42.018;23.670;2023-07-31T01:12:09;9.98;;;4.68;;
44480;SDS011;30184;42.018;23.670;2023-07-31T01:15:01;14.55;;;4.53;;
44480;SDS011;30184;42.018;23.670;2023-07-31T01:17:34;9.90;;;4.68;;
44480;SDS011;30184;42.018;23.670;2023-07-31T01:20:03;8.85;;;4.78;;
44480;SDS011;30184;42.018;23.670;2023-07-31T01:22:40;12.02;;;4.85;;
44480;SDS011;30184;42.018;23.670;2023-07-31T01:25:35;7.80;;;4.88;;
44480;SDS011;30184;42.018;23.670;2023-07-31T01:28:19;7.63;;;4.93;;
44480;SDS011;30184;42.018;23.670;2023-07-31T01:30:52;13.07;;;5.05;;
44480;SDS011;30184;42.018;23.670;2023-07-31T01:33:27;8.43;;;5.07;;
44480;SDS011;30184;42.018;23.670;2023-07-31T01:35:57;8.27;;;5.45;;
44480;SDS011;30184;42.018;23.670;2023-07-31T01:38:27;10.38;;;4.93;;
44480;SDS011;30184;42.018;23.670;2023-07-31T01:40:58;10.68;;;5.55;;
44480;SDS011;30184;42.018;23.670;2023-07-31T01:43:27;9.60;;;5.25;;
44480;SDS011;30184;42.018;23.670;2023-07-31T01:45:56;10.32;;;5.75;;
44480;SDS011;30184;42.018;23.670;2023-07-31T01:48:26;9.13;;;5.55;;
44480;SDS011;30184;42.018;23.670;2023-07-31T01:50:55;12.48;;;6.55;;
44480;SDS011;30184;42.018;23.670;2023-07-31T01:53:24;9.25;;;5.50;;
44480;SDS011;30184;42.018;23.670;2023-07-31T01:55:54;9.15;;;5.78;;
44480;SDS011;30184;42.018;23.670;2023-07-31T01:58:24;9.88;;;5.93;;
44480;SDS011;30184;42.018;23.670;2023-07-31T02:00:53;9.05;;;5.60;;
44480;SDS011;30184;42.018;23.670;2023-07-31T02:03:23;10.57;;;6.45;;
44480;SDS011;30184;42.018;23.670;2023-07-31T02:05:53;10.27;;;5.85;;
44480;SDS011;30184;42.018;23.670;2023-07-31T02:08:25;12.95;;;6.47;;
44480;SDS011;30184;42.018;23.670;2023-07-31T02:10:54;11.18;;;5.75;;
44480;SDS011;30184;42.018;23.670;2023-07-31T02:13:25;10.40;;;5.28;;
44480;SDS011;30184;42.018;23.670;2023-07-31T02:15:54;8.88;;;5.10;;
44480;SDS011;30184;42.018;23.670;2023-07-31T02:18:25;6.97;;;5.18;;
44480;SDS011;30184;42.018;23.670;2023-07-31T02:20:54;10.55;;;5.63;;
44480;SDS011;30184;42.018;23.670;2023-07-31T02:23:23;10.15;;;6.30;;
44480;SDS011;30184;42.018;23.670;2023-07-31T02:25:52;11.07;;;5.72;;
44480;SDS011;30184;42.018;23.670;2023-07-31T02:28:22;11.77;;;5.53;;
44480;SDS011;30184;42.018;23.670;2023-07-31T02:30:52;9.45;;;5.32;;
44480;SDS011;30184;42.018;23.670;2023-07-31T02:33:22;10.40;;;5.47;;
44480;SDS011;30184;42.018;23.670;2023-07-31T02:35:51;10.45;;;5.18;;
44480;SDS011;30184;42.018;23.670;2023-07-31T02:38:22;9.38;;;5.45;;
44480;SDS011;30184;42.018;23.670;2023-07-31T02:40:51;8.80;;;5.57;;
44480;SDS011;30184;42.018;23.670;2023-07-31T02:43:20;12.90;;;5.82;;
44480;SDS011;30184;42.018;23.670;2023-07-31T02:45:51;13.27;;;5.95;;
44480;SDS011;30184;42.018;23.670;2023-07-31T02:48:23;13.63;;;5.88;;
44480;SDS011;30184;42.018;23.670;2023-07-31T02:50:53;9.88;;;5.93;;
44480;SDS011;30184;42.018;23.670;2023-07-31T02:53:22;8.93;;;5.40;;
44480;SDS011;30184;42.018;23.670;2023-07-31T02:55:51;11.55;;;5.15;;
44480;SDS011;30184;42.018;23.670;2023-07-31T02:58:21;11.00;;;5.72;;
44480;SDS011;30184;42.018;23.670;2023-07-31T03:00:50;9.13;;;5.32;;
44480;SDS011;30184;42.018;23.670;2023-07-31T03:03:21;12.82;;;5.57;;
44480;SDS011;30184;42.018;23.670;2023-07-31T03:05:50;8.02;;;5.20;;
44480;SDS011;30184;42.018;23.670;2023-07-31T03:08:20;7.65;;;5.40;;
44480;SDS011;30184;42.018;23.670;2023-07-31T03:10:49;8.95;;;5.78;;
44480;SDS011;30184;42.018;23.670;2023-07-31T03:13:18;10.38;;;5.90;;
44480;SDS011;30184;42.018;23.670;2023-07-31T03:15:47;8.45;;;5.60;;
44480;SDS011;30184;42.018;23.670;2023-07-31T03:18:17;8.25;;;5.35;;
44480;SDS011;30184;42.018;23.670;2023-07-31T03:20:47;8.50;;;5.50;;
44480;SDS011;30184;42.018;23.670;2023-07-31T03:23:17;8.77;;;5.07;;
44480;SDS011;30184;42.018;23.670;2023-07-31T03:25:55;8.15;;;5.43;;
44480;SDS011;30184;42.018;23.670;2023-07-31T03:28:28;8.30;;;5.65;;
44480;SDS011;30184;42.018;23.670;2023-07-31T03:30:58;15.73;;;6.80;;
44480;SDS011;30184;42.018;23.670;2023-07-31T03:33:29;7.97;;;5.28;;
44480;SDS011;30184;42.018;23.670;2023-07-31T03:36:00;10.98;;;6.28;;
44480;SDS011;30184;42.018;23.670;2023-07-31T03:38:30;10.00;;;6.53;;
44480;SDS011;30184;42.018;23.670;2023-07-31T03:40:59;9.20;;;5.65;;
44480;SDS011;30184;42.018;23.670;2023-07-31T03:43:29;10.02;;;6.15;;
44480;SDS011;30184;42.018;23.670;2023-07-31T03:45:59;9.52;;;5.47;;
44480;SDS011;30184;42.018;23.670;2023-07-31T03:48:28;8.65;;;5.88;;
44480;SDS011;30184;42.018;23.670;2023-07-31T03:50:59;6.88;;;4.85;;
44480;SDS011;30184;42.018;23.670;2023-07-31T03:53:29;10.50;;;5.72;;
44480;SDS011;30184;42.018;23.670;2023-07-31T03:55:58;7.93;;;5.22;;
44480;SDS011;30184;42.018;23.670;2023-07-31T03:58:27;8.98;;;5.20;;
44480;SDS011;30184;42.018;23.670;2023-07-31T04:00:56;9.40;;;6.15;;
44480;SDS011;30184;42.018;23.670;2023-07-31T04:03:26;9.68;;;6.03;;
44480;SDS011;30184;42.018;23.670;2023-07-31T04:05:55;10.55;;;6.55;;
44480;SDS011;30184;42.018;23.670;2023-07-31T04:08:26;10.82;;;7.28;;
44480;SDS011;30184;42.018;23.670;2023-07-31T04:10:55;12.18;;;5.53;;
44480;SDS011;30184;42.018;23.670;2023-07-31T04:13:25;9.00;;;5.50;;
44480;SDS011;30184;42.018;23.670;2023-07-31T04:15:56;9.38;;;5.03;;
44480;SDS011;30184;42.018;23.670;2023-07-31T04:18:25;8.43;;;5.70;;
44480;SDS011;30184;42.018;23.670;2023-07-31T04:20:54;9.20;;;5.78;;
44480;SDS011;30184;42.018;23.670;2023-07-31T04:23:24;9.35;;;5.40;;
44480;SDS011;30184;42.018;23.670;2023-07-31T04:25:55;9.73;;;5.75;;
44480;SDS011;30184;42.018;23.670;2023-07-31T04:28:24;8.90;;;5.82;;
44480;SDS011;30184;42.018;23.670;2023-07-31T04:30:53;9.45;;;6.53;;
44480;SDS011;30184;42.018;23.670;2023-07-31T04:33:23;10.05;;;6.38;;
44480;SDS011;30184;42.018;23.670;2023-07-31T04:35:52;11.05;;;6.35;;
44480;SDS011;30184;42.018;23.670;2023-07-31T04:38:22;10.70;;;6.13;;
44480;SDS011;30184;42.018;23.670;2023-07-31T04:40:51;9.80;;;6.05;;
44480;SDS011;30184;42.018;23.670;2023-07-31T04:43:21;10.73;;;6.07;;
44480;SDS011;30184;42.018;23.670;2023-07-31T04:45:50;17.17;;;6.28;;
44480;SDS011;30184;42.018;23.670;2023-07-31T04:48:21;8.40;;;5.40;;
44480;SDS011;30184;42.018;23.670;2023-07-31T04:50:51;7.95;;;5.40;;
44480;SDS011;30184;42.018;23.670;2023-07-31T04:53:20;11.40;;;5.75;;
44480;SDS011;30184;42.018;23.670;2023-07-31T04:55:49;12.02;;;6.43;;
44480;SDS011;30184;42.018;23.670;2023-07-31T04:58:18;9.50;;;6.13;;
44480;SDS011;30184;42.018;23.670;2023-07-31T05:00:49;12.45;;;7.07;;
44480;SDS011;30184;42.018;23.670;2023-07-31T05:03:18;10.40;;;5.50;;
44480;SDS011;30184;42.018;23.670;2023-07-31T05:05:48;8.32;;;5.60;;
44480;SDS011;30184;42.018;23.670;2023-07-31T05:08:18;8.80;;;5.57;;
44480;SDS011;30184;42.018;23.670;2023-07-31T05:10:48;9.48;;;5.68;;
44480;SDS011;30184;42.018;23.670;2023-07-31T05:13:17;11.60;;;6.25;;
44480;SDS011;30184;42.018;23.670;2023-07-31T05:15:46;11.02;;;6.20;;
44480;SDS011;30184;42.018;23.670;2023-07-31T05:18:18;10.60;;;6.45;;
44480;SDS011;30184;42.018;23.670;2023-07-31T05:20:47;8.35;;;5.45;;
44480;SDS011;30184;42.018;23.670;2023-07-31T05:23:17;8.38;;;6.13;;
44480;SDS011;30184;42.018;23.670;2023-07-31T05:25:46;9.68;;;5.65;;
44480;SDS011;30184;42.018;23.670;2023-07-31T05:28:15;9.00;;;5.57;;
44480;SDS011;30184;42.018;23.670;2023-07-31T05:30:44;10.00;;;6.03;;
44480;SDS011;30184;42.018;23.670;2023-07-31T05:33:14;7.05;;;4.88;;
44480;SDS011;30184;42.018;23.670;2023-07-31T05:35:44;8.60;;;5.38;;
44480;SDS011;30184;42.018;23.670;2023-07-31T05:38:14;6.82;;;4.68;;
44480;SDS011;30184;42.018;23.670;2023-07-31T05:40:43;7.28;;;4.82;;
44480;SDS011;30184;42.018;23.670;2023-07-31T05:43:12;8.43;;;5.57;;
44480;SDS011;30184;42.018;23.670;2023-07-31T05:45:41;8.80;;;5.43;;
44480;SDS011;30184;42.018;23.670;2023-07-31T05:48:11;8.07;;;4.72;;
44480;SDS011;30184;42.018;23.670;2023-07-31T05:50:40;6.95;;;4.55;;
44480;SDS011;30184;42.018;23.670;2023-07-31T05:53:11;7.72;;;5.38;;
44480;SDS011;30184;42.018;23.670;2023-07-31T05:55:40;9.43;;;5.63;;
44480;SDS011;30184;42.018;23.670;2023-07-31T05:58:09;12.98;;;8.30;;
44480;SDS011;30184;42.018;23.670;2023-07-31T06:00:39;13.70;;;6.93;;
44480;SDS011;30184;42.018;23.670;2023-07-31T06:03:08;10.60;;;5.97;;
44480;SDS011;30184;42.018;23.670;2023-07-31T06:05:37;10.63;;;4.95;;
44480;SDS011;30184;42.018;23.670;2023-07-31T06:08:07;7.95;;;5.00;;
44480;SDS011;30184;42.018;23.670;2023-07-31T06:10:37;7.32;;;5.00;;
44480;SDS011;30184;42.018;23.670;2023-07-31T06:13:07;7.40;;;4.80;;
44480;SDS011;30184;42.018;23.670;2023-07-31T06:15:36;8.20;;;4.68;;
44480;SDS011;30184;42.018;23.670;2023-07-31T06:18:05;10.00;;;5.13;;
44480;SDS011;30184;42.018;23.670;2023-07-31T06:20:35;8.48;;;5.38;;
44480;SDS011;30184;42.018;23.670;2023-07-31T06:23:07;9.65;;;4.88;;
44480;SDS011;30184;42.018;23.670;2023-07-31T06:25:38;6.07;;;4.10;;
44480;SDS011;30184;42.018;23.670;2023-07-31T06:28:08;5.47;;;3.88;;
44480;SDS011;30184;42.018;23.670;2023-07-31T06:30:37;6.32;;;3.40;;
44480;SDS011;30184;42.018;23.670;2023-07-31T06:33:06;10.93;;;4.50;;
44480;SDS011;30184;42.018;23.670;2023-07-31T06:35:36;7.15;;;3.97;;
44480;SDS011;30184;42.018;23.670;2023-07-31T06:38:05;8.07;;;4.53;;
44480;SDS011;30184;42.018;23.670;2023-07-31T06:40:34;6.03;;;3.67;;
44480;SDS011;30184;42.018;23.670;2023-07-31T06:43:05;5.85;;;3.97;;
44480;SDS011;30184;42.018;23.670;2023-07-31T06:45:36;6.07;;;3.72;;
44480;SDS011;30184;42.018;23.670;2023-07-31T06:48:06;6.22;;;3.88;;
44480;SDS011;30184;42.018;23.670;2023-07-31T06:50:35;8.05;;;3.42;;
44480;SDS011;30184;42.018;23.670;2023-07-31T06:53:04;6.07;;;3.35;;
44480;SDS011;30184;42.018;23.670;2023-07-31T06:55:34;5.90;;;3.63;;
44480;SDS011;30184;42.018;23.670;2023-07-31T06:58:04;6.45;;;3.75;;
44480;SDS011;30184;42.018;23.670;2023-07-31T07:00:33;5.63;;;3.38;;
44480;SDS011;30184;42.018;23.670;2023-07-31T07:03:03;6.55;;;3.58;;
44480;SDS011;30184;42.018;23.670;2023-07-31T07:05:32;5.15;;;3.30;;
44480;SDS011;30184;42.018;23.670;2023-07-31T07:08:01;5.72;;;3.75;;
44480;SDS011;30184;42.018;23.670;2023-07-31T07:10:30;6.35;;;3.50;;
44480;SDS011;30184;42.018;23.670;2023-07-31T07:12:59;5.05;;;3.28;;
44480;SDS011;30184;42.018;23.670;2023-07-31T07:15:31;6.40;;;3.63;;
44480;SDS011;30184;42.018;23.670;2023-07-31T07:18:00;5.80;;;3.42;;
44480;SDS011;30184;42.018;23.670;2023-07-31T07:20:31;5.90;;;3.08;;
44480;SDS011;30184;42.018;23.670;2023-07-31T07:23:00;5.22;;;3.35;;
44480;SDS011;30184;42.018;23.670;2023-07-31T07:25:29;5.18;;;3.17;;
44480;SDS011;30184;42.018;23.670;2023-07-31T07:27:58;9.52;;;3.45;;
44480;SDS011;30184;42.018;23.670;2023-07-31T07:30:29;7.40;;;3.25;;
44480;SDS011;30184;42.018;23.670;2023-07-31T07:32:59;6.72;;;2.90;;
44480;SDS011;30184;42.018;23.670;2023-07-31T07:35:28;3.45;;;2.40;;
44480;SDS011;30184;42.018;23.670;2023-07-31T07:37:58;3.55;;;2.38;;
44480;SDS011;30184;42.018;23.670;2023-07-31T07:40:28;3.80;;;2.38;;
44480;SDS011;30184;42.018;23.670;2023-07-31T07:42:57;4.80;;;2.90;;
44480;SDS011;30184;42.018;23.670;2023-07-31T07:45:27;3.67;;;2.60;;
44480;SDS011;30184;42.018;23.670;2023-07-31T07:47:58;5.13;;;2.92;;
44480;SDS011;30184;42.018;23.670;2023-07-31T07:50:27;4.78;;;2.85;;
44480;SDS011;30184;42.018;23.670;2023-07-31T07:52:57;5.18;;;3.00;;
44480;SDS011;30184;42.018;23.670;2023-07-31T07:55:26;4.57;;;2.70;;
44480;SDS011;30184;42.018;23.670;2023-07-31T07:57:55;4.43;;;2.33;;
44480;SDS011;30184;42.018;23.670;2023-07-31T08:00:25;5.38;;;3.15;;
44480;SDS011;30184;42.018;23.670;2023-07-31T08:02:54;4.45;;;2.85;;
44480;SDS011;30184;42.018;23.670;2023-07-31T08:05:26;4.75;;;2.80;;
44480;SDS011;30184;42.018;23.670;2023-07-31T08:07:56;5.18;;;2.72;;
44480;SDS011;30184;42.018;23.670;2023-07-31T08:10:25;5.85;;;3.05;;
44480;SDS011;30184;42.018;23.670;2023-07-31T08:12:55;5.30;;;3.38;;
44480;SDS011;30184;42.018;23.670;2023-07-31T08:15:24;6.15;;;3.10;;
44480;SDS011;30184;42.018;23.670;2023-07-31T08:17:54;5.60;;;3.25;;
44480;SDS011;30184;42.018;23.670;2023-07-31T08:20:24;7.78;;;4.00;;
44480;SDS011;30184;42.018;23.670;2023-07-31T08:22:55;5.75;;;3.03;;
44480;SDS011;30184;42.018;23.670;2023-07-31T08:25:24;5.70;;;3.50;;
44480;SDS011;30184;42.018;23.670;2023-07-31T08:27:54;6.60;;;3.40;;
44480;SDS011;30184;42.018;23.670;2023-07-31T08:30:23;9.68;;;3.78;;
44480;SDS011;30184;42.018;23.670;2023-07-31T08:32:52;6.45;;;3.90;;
44480;SDS011;30184;42.018;23.670;2023-07-31T08:35:21;5.20;;;3.30;;
44480;SDS011;30184;42.018;23.670;2023-07-31T08:37:53;6.13;;;3.30;;
44480;SDS011;30184;42.018;23.670;2023-07-31T08:40:22;7.90;;;4.15;;
44480;SDS011;30184;42.018;23.670;2023-07-31T08:42:53;6.68;;;3.90;;
44480;SDS011;30184;42.018;23.670;2023-07-31T08:45:23;8.82;;;3.83;;
44480;SDS011;30184;42.018;23.670;2023-07-31T08:47:53;7.88;;;4.35;;
44480;SDS011;30184;42.018;23.670;2023-07-31T08:50:24;7.30;;;4.72;;
44480;SDS011;30184;42.018;23.670;2023-07-31T08:52:54;7.75;;;4.53;;
44480;SDS011;30184;42.018;23.670;2023-07-31T08:55:25;8.50;;;4.90;;
44480;SDS011;30184;42.018;23.670;2023-07-31T08:57:56;7.70;;;5.05;;
44480;SDS011;30184;42.018;23.670;2023-07-31T09:00:26;11.00;;;4.88;;
44480;SDS011;30184;42.018;23.670;2023-07-31T09:02:56;7.97;;;4.95;;
44480;SDS011;30184;42.018;23.670;2023-07-31T09:05:30;9.63;;;5.10;;
44480;SDS011;30184;42.018;23.670;2023-07-31T09:08:01;9.00;;;4.80;;
44480;SDS011;30184;42.018;23.670;2023-07-31T09:10:33;11.68;;;4.72;;
44480;SDS011;30184;42.018;23.670;2023-07-31T09:13:02;10.80;;;6.00;;
44480;SDS011;30184;42.018;23.670;2023-07-31T09:15:31;7.60;;;4.28;;
44480;SDS011;30184;42.018;23.670;2023-07-31T09:18:04;8.90;;;5.07;;
44480;SDS011;30184;42.018;23.670;2023-07-31T09:20:35;9.15;;;5.35;;
44480;SDS011;30184;42.018;23.670;2023-07-31T09:23:07;8.73;;;5.15;;
44480;SDS011;30184;42.018;23.670;2023-07-31T09:25:37;9.63;;;5.75;;
44480;SDS011;30184;42.018;23.670;2023-07-31T09:28:08;9.95;;;5.63;;
44480;SDS011;30184;42.018;23.670;2023-07-31T09:30:46;9.98;;;5.35;;
44480;SDS011;30184;42.018;23.670;2023-07-31T09:33:18;11.38;;;6.32;;
44480;SDS011;30184;42.018;23.670;2023-07-31T09:35:48;9.88;;;5.93;;
44480;SDS011;30184;42.018;23.670;2023-07-31T09:38:18;8.40;;;5.05;;
44480;SDS011;30184;42.018;23.670;2023-07-31T09:40:48;8.85;;;5.32;;
44480;SDS011;30184;42.018;23.670;2023-07-31T09:43:18;9.60;;;5.85;;
44480;SDS011;30184;42.018;23.670;2023-07-31T09:45:52;10.65;;;5.97;;
44480;SDS011;30184;42.018;23.670;2023-07-31T09:48:24;9.38;;;5.32;;
44480;SDS011;30184;42.018;23.670;2023-07-31T09:50:55;15.23;;;5.70;;
44480;SDS011;30184;42.018;23.670;2023-07-31T09:53:29;9.55;;;6.07;;
44480;SDS011;30184;42.018;23.670;2023-07-31T09:55:58;8.77;;;5.72;;
44480;SDS011;30184;42.018;23.670;2023-07-31T09:58:29;10.18;;;6.00;;
44480;SDS011;30184;42.018;23.670;2023-07-31T10:01:00;9.75;;;5.80;;
44480;SDS011;30184;42.018;23.670;2023-07-31T10:03:30;12.48;;;6.82;;
44480;SDS011;30184;42.018;23.670;2023-07-31T10:06:01;8.50;;;6.10;;
44480;SDS011;30184;42.018;23.670;2023-07-31T10:08:33;11.43;;;6.85;;
44480;SDS011;30184;42.018;23.670;2023-07-31T10:11:05;12.52;;;7.03;;
44480;SDS011;30184;42.018;23.670;2023-07-31T10:13:35;10.70;;;6.75;;
44480;SDS011;30184;42.018;23.670;2023-07-31T10:16:05;9.75;;;6.05;;
44480;SDS011;30184;42.018;23.670;2023-07-31T10:18:35;14.90;;;6.40;;
44480;SDS011;30184;42.018;23.670;2023-07-31T10:21:05;10.60;;;6.60;;
44480;SDS011;30184;42.018;23.670;2023-07-31T10:23:37;10.38;;;6.57;;
44480;SDS011;30184;42.018;23.670;2023-07-31T10:26:07;12.32;;;7.07;;
44480;SDS011;30184;42.018;23.670;2023-07-31T10:28:37;10.55;;;6.40;;
44480;SDS011;30184;42.018;23.670;2023-07-31T10:31:07;10.70;;;5.85;;
44480;SDS011;30184;42.018;23.670;2023-07-31T10:33:37;7.97;;;5.15;;
44480;SDS011;30184;42.018;23.670;2023-07-31T10:36:13;12.00;;;5.13;;
44480;SDS011;30184;42.018;23.670;2023-07-31T10:38:46;12.32;;;6.57;;
44480;SDS011;30184;42.018;23.670;2023-07-31T10:41:17;11.40;;;5.10;;
44480;SDS011;30184;42.018;23.670;2023-07-31T10:43:47;8.95;;;5.28;;
44480;SDS011;30184;42.018;23.670;2023-07-31T10:46:16;9.98;;;5.97;;
44480;SDS011;30184;42.018;23.670;2023-07-31T10:48:45;9.80;;;5.43;;
44480;SDS011;30184;42.018;23.670;2023-07-31T10:51:32;10.95;;;4.95;;
44480;SDS011;30184;42.018;23.670;2023-07-31T10:54:14;8.45;;;5.20;;
44480;SDS011;30184;42.018;23.670;2023-07-31T10:56:45;8.93;;;5.20;;
44480;SDS011;30184;42.018;23.670;2023-07-31T10:59:15;8.07;;;4.82;;
44480;SDS011;30184;42.018;23.670;2023-07-31T11:01:51;9.65;;;5.20;;
44480;SDS011;30184;42.018;23.670;2023-07-31T11:04:22;8.18;;;4.57;;
44480;SDS011;30184;42.018;23.670;2023-07-31T11:06:55;7.50;;;4.57;;
44480;SDS011;30184;42.018;23.670;2023-07-31T11:09:28;7.28;;;4.18;;
44480;SDS011;30184;42.018;23.670;2023-07-31T11:11:59;7.18;;;4.47;;
44480;SDS011;30184;42.018;23.670;2023-07-31T11:14:28;9.55;;;4.95;;
44480;SDS011;30184;42.018;23.670;2023-07-31T11:16:57;6.63;;;4.32;;
44480;SDS011;30184;42.018;23.670;2023-07-31T11:19:27;6.80;;;4.07;;
44480;SDS011;30184;42.018;23.670;2023-07-31T11:21:57;9.85;;;4.85;;
44480;SDS011;30184;42.018;23.670;2023-07-31T11:24:29;8.82;;;5.00;;
44480;SDS011;30184;42.018;23.670;2023-07-31T11:26:58;7.90;;;4.20;;
44480;SDS011;30184;42.018;23.670;2023-07-31T11:29:27;6.78;;;4.13;;
44480;SDS011;30184;42.018;23.670;2023-07-31T11:31:57;6.35;;;3.92;;
44480;SDS011;30184;42.018;23.670;2023-07-31T11:34:27;7.43;;;4.47;;
44480;SDS011;30184;42.018;23.670;2023-07-31T11:36:56;7.10;;;4.28;;
44480;SDS011;30184;42.018;23.670;2023-07-31T11:39:25;6.63;;;4.20;;
44480;SDS011;30184;42.018;23.670;2023-07-31T11:41:59;6.30;;;3.67;;
44480;SDS011;30184;42.018;23.670;2023-07-31T11:44:37;7.25;;;4.03;;
44480;SDS011;30184;42.018;23.670;2023-07-31T11:47:06;6.47;;;3.72;;
44480;SDS011;30184;42.018;23.670;2023-07-31T11:49:36;4.75;;;3.42;;
44480;SDS011;30184;42.018;23.670;2023-07-31T11:52:06;5.80;;;3.53;;
44480;SDS011;30184;42.018;23.670;2023-07-31T11:54:36;6.60;;;3.80;;
44480;SDS011;30184;42.018;23.670;2023-07-31T11:57:07;4.82;;;2.53;;
44480;SDS011;30184;42.018;23.670;2023-07-31T11:59:37;4.65;;;2.55;;
44480;SDS011;30184;42.018;23.670;2023-07-31T12:02:07;6.03;;;2.90;;
44480;SDS011;30184;42.018;23.670;2023-07-31T12:04:37;5.10;;;3.03;;
44480;SDS011;30184;42.018;23.670;2023-07-31T12:07:06;7.43;;;3.50;;
44480;SDS011;30184;42.018;23.670;2023-07-31T12:09:36;6.18;;;3.00;;
44480;SDS011;30184;42.018;23.670;2023-07-31T12:12:09;4.20;;;2.28;;
44480;SDS011;30184;42.018;23.670;2023-07-31T12:14:38;4.07;;;2.70;;
44480;SDS011;30184;42.018;23.670;2023-07-31T12:17:10;4.18;;;2.45;;
44480;SDS011;30184;42.018;23.670;2023-07-31T12:19:39;6.32;;;3.30;;
44480;SDS011;30184;42.018;23.670;2023-07-31T12:22:12;6.35;;;3.00;;
44480;SDS011;30184;42.018;23.670;2023-07-31T12:24:43;7.22;;;3.30;;
44480;SDS011;30184;42.018;23.670;2023-07-31T12:27:14;6.47;;;2.53;;
44480;SDS011;30184;42.018;23.670;2023-07-31T12:29:45;5.55;;;3.47;;
44480;SDS011;30184;42.018;23.670;2023-07-31T12:32:19;7.40;;;2.80;;
44480;SDS011;30184;42.018;23.670;2023-07-31T12:34:49;6.38;;;2.92;;
44480;SDS011;30184;42.018;23.670;2023-07-31T12:37:18;6.28;;;3.20;;
44480;SDS011;30184;42.018;23.670;2023-07-31T12:39:49;5.40;;;2.85;;
44480;SDS011;30184;42.018;23.670;2023-07-31T12:42:19;5.70;;;2.53;;
44480;SDS011;30184;42.018;23.670;2023-07-31T12:44:49;6.07;;;3.28;;
44480;SDS011;30184;42.018;23.670;2023-07-31T12:47:18;4.03;;;2.50;;
44480;SDS011;30184;42.018;23.670;2023-07-31T12:49:47;4.60;;;2.50;;
44480;SDS011;30184;42.018;23.670;2023-07-31T12:52:17;5.35;;;3.00;;
44480;SDS011;30184;42.018;23.670;2023-07-31T12:54:46;5.15;;;3.13;;
44480;SDS011;30184;42.018;23.670;2023-07-31T12:57:15;9.52;;;4.03;;
44480;SDS011;30184;42.018;23.670;2023-07-31T12:59:45;5.07;;;3.42;;
44480;SDS011;30184;42.018;23.670;2023-07-31T13:02:14;7.70;;;3.78;;
44480;SDS011;30184;42.018;23.670;2023-07-31T13:04:45;3.80;;;2.30;;
44480;SDS011;30184;42.018;23.670;2023-07-31T13:07:14;3.92;;;2.00;;
44480;SDS011;30184;42.018;23.670;2023-07-31T13:09:43;3.92;;;2.30;;
44480;SDS011;30184;42.018;23.670;2023-07-31T13:12:12;4.38;;;1.83;;
44480;SDS011;30184;42.018;23.670;2023-07-31T13:14:41;3.72;;;2.08;;
44480;SDS011;30184;42.018;23.670;2023-07-31T13:17:12;4.30;;;2.00;;
44480;SDS011;30184;42.018;23.670;2023-07-31T13:19:41;4.07;;;2.38;;
44480;SDS011;30184;42.018;23.670;2023-07-31T13:22:10;4.95;;;1.95;;
44480;SDS011;30184;42.018;23.670;2023-07-31T13:24:39;4.25;;;2.50;;
44480;SDS011;30184;42.018;23.670;2023-07-31T13:27:09;3.90;;;2.55;;
44480;SDS011;30184;42.018;23.670;2023-07-31T13:29:38;3.67;;;2.30;;
44480;SDS011;30184;42.018;23.670;2023-07-31T13:32:07;6.07;;;2.75;;
44480;SDS011;30184;42.018;23.670;2023-07-31T13:34:38;5.15;;;2.58;;
44480;SDS011;30184;42.018;23.670;2023-07-31T13:37:07;4.90;;;2.70;;
44480;SDS011;30184;42.018;23.670;2023-07-31T13:39:37;4.38;;;2.40;;
44480;SDS011;30184;42.018;23.670;2023-07-31T13:42:07;4.38;;;2.42;;
44480;SDS011;30184;42.018;23.670;2023-07-31T13:44:39;4.22;;;2.42;;
44480;SDS011;30184;42.018;23.670;2023-07-31T13:47:09;4.38;;;2.35;;
44480;SDS011;30184;42.018;23.670;2023-07-31T13:49:40;3.72;;;2.40;;
44480;SDS011;30184;42.018;23.670;2023-07-31T13:52:11;5.00;;;2.85;;
44480;SDS011;30184;42.018;23.670;2023-07-31T13:54:40;6.05;;;2.50;;
44480;SDS011;30184;42.018;23.670;2023-07-31T13:57:10;3.72;;;2.38;;
44480;SDS011;30184;42.018;23.670;2023-07-31T13:59:39;7.30;;;2.45;;
44480;SDS011;30184;42.018;23.670;2023-07-31T14:02:09;5.68;;;2.90;;
44480;SDS011;30184;42.018;23.670;2023-07-31T14:04:38;5.30;;;2.80;;
44480;SDS011;30184;42.018;23.670;2023-07-31T14:07:09;6.40;;;2.83;;
44480;SDS011;30184;42.018;23.670;2023-07-31T14:09:38;5.50;;;2.90;;
44480;SDS011;30184;42.018;23.670;2023-07-31T14:12:07;6.32;;;2.88;;
44480;SDS011;30184;42.018;23.670;2023-07-31T14:14:36;5.80;;;2.90;;
44480;SDS011;30184;42.018;23.670;2023-07-31T14:17:06;7.13;;;3.28;;
44480;SDS011;30184;42.018;23.670;2023-07-31T14:19:35;5.25;;;2.75;;
44480;SDS011;30184;42.018;23.670;2023-07-31T14:22:05;4.97;;;2.67;;
44480;SDS011;30184;42.018;23.670;2023-07-31T14:24:38;5.80;;;2.47;;
44480;SDS011;30184;42.018;23.670;2023-07-31T14:27:07;4.65;;;2.60;;
44480;SDS011;30184;42.018;23.670;2023-07-31T14:29:37;4.63;;;2.55;;
44480;SDS011;30184;42.018;23.670;2023-07-31T14:32:07;4.82;;;2.40;;
44480;SDS011;30184;42.018;23.670;2023-07-31T14:34:37;4.28;;;2.60;;
44480;SDS011;30184;42.018;23.670;2023-07-31T14:37:06;7.68;;;5.05;;
44480;SDS011;30184;42.018;23.670;2023-07-31T14:39:37;6.57;;;3.15;;
44480;SDS011;30184;42.018;23.670;2023-07-31T14:42:07;7.25;;;3.60;;
44480;SDS011;30184;42.018;23.670;2023-07-31T14:44:36;6.88;;;3.20;;
44480;SDS011;30184;42.018;23.670;2023-07-31T14:47:05;5.15;;;2.88;;
44480;SDS011;30184;42.018;23.670;2023-07-31T14:49:35;17.52;;;2.97;;